createdAt,value
2019-03-04T00:00:50.854Z,6.27
2019-03-04T00:03:20.047Z,8.13
2019-03-04T00:05:49.227Z,7.03
2019-03-04T00:08:18.444Z,6.60
2019-03-04T00:10:47.628Z,7.77
2019-03-04T00:13:16.881Z,6.90
2019-03-04T00:15:46.064Z,6.47
2019-03-04T00:18:15.298Z,7.30
2019-03-04T00:20:44.496Z,5.50
2019-03-04T00:23:13.705Z,6.50
2019-03-04T00:25:42.903Z,8.97
2019-03-04T00:28:12.116Z,7.13
2019-03-04T00:30:41.306Z,7.23
2019-03-04T00:33:10.510Z,5.37
2019-03-04T00:35:39.699Z,6.50
2019-03-04T00:38:08.914Z,7.47
2019-03-04T00:40:38.110Z,7.23
2019-03-04T00:43:07.294Z,4.43
2019-03-04T00:45:36.517Z,6.40
2019-03-04T00:48:05.706Z,4.87
2019-03-04T00:50:35.015Z,8.10
2019-03-04T00:53:04.288Z,6.20
2019-03-04T00:55:33.484Z,7.03
2019-03-04T00:58:02.667Z,5.77
2019-03-04T01:00:31.882Z,4.67
2019-03-04T01:03:01.070Z,5.30
2019-03-04T01:05:30.278Z,5.73
2019-03-04T01:07:59.461Z,6.80
2019-03-04T01:10:28.677Z,5.47
2019-03-04T01:12:57.873Z,4.83
2019-03-04T01:15:27.076Z,7.10
2019-03-04T01:17:56.280Z,8.83
2019-03-04T01:20:25.488Z,6.17
2019-03-04T01:22:54.682Z,6.17
2019-03-04T01:25:23.894Z,4.60
2019-03-04T01:27:53.072Z,5.27
2019-03-04T01:30:23.713Z,6.87
2019-03-04T01:32:53.370Z,5.87
2019-03-04T01:35:22.560Z,7.60
2019-03-04T01:37:51.744Z,6.27
2019-03-04T01:40:22.585Z,5.83
2019-03-04T01:42:51.763Z,6.40
2019-03-04T01:45:20.961Z,5.67
2019-03-04T01:47:50.144Z,5.50
2019-03-04T01:50:19.320Z,6.27
2019-03-04T01:52:48.530Z,5.10
2019-03-04T01:55:18.229Z,6.70
2019-03-04T01:57:47.443Z,7.03
2019-03-04T02:00:19.033Z,5.80
2019-03-04T02:02:48.233Z,6.17
2019-03-04T02:05:17.417Z,7.27
2019-03-04T02:07:46.618Z,5.27
2019-03-04T02:10:17.546Z,8.47
2019-03-04T02:12:47.487Z,8.60
2019-03-04T02:15:18.223Z,8.10
2019-03-04T02:17:47.412Z,6.17
2019-03-04T02:20:17.537Z,7.00
2019-03-04T02:22:46.907Z,7.67
2019-03-04T02:25:19.357Z,6.37
2019-03-04T02:27:51.290Z,6.40
2019-03-04T02:30:26.388Z,5.97
2019-03-04T02:32:55.594Z,7.30
2019-03-04T02:35:24.789Z,7.57
2019-03-04T02:37:53.977Z,6.30
2019-03-04T02:40:23.226Z,6.73
2019-03-04T02:42:52.444Z,6.07
2019-03-04T02:45:21.626Z,7.27
2019-03-04T02:47:50.822Z,7.77
2019-03-04T02:50:20.017Z,8.50
2019-03-04T02:52:49.216Z,5.23
2019-03-04T02:55:18.433Z,8.50
2019-03-04T02:57:47.637Z,5.73
2019-03-04T03:00:22.847Z,6.20
2019-03-04T03:02:52.228Z,6.73
2019-03-04T03:05:21.463Z,6.50
2019-03-04T03:07:50.676Z,5.10
2019-03-04T03:10:19.850Z,6.57
2019-03-04T03:12:49.059Z,5.67
2019-03-04T03:15:19.879Z,6.90
2019-03-04T03:17:49.083Z,6.07
2019-03-04T03:20:18.374Z,5.13
2019-03-04T03:22:47.603Z,5.63
2019-03-04T03:25:16.953Z,5.90
2019-03-04T03:27:46.149Z,6.13
2019-03-04T03:30:17.934Z,5.13
2019-03-04T03:32:47.150Z,4.70
2019-03-04T03:35:16.350Z,6.40
2019-03-04T03:37:45.552Z,6.87
2019-03-04T03:40:19.981Z,6.27
2019-03-04T03:42:49.167Z,7.17
2019-03-04T03:45:18.428Z,6.27
2019-03-04T03:47:47.623Z,9.00
2019-03-04T03:50:17.596Z,13.10
2019-03-04T03:52:46.967Z,11.97
2019-03-04T03:55:16.768Z,11.23
2019-03-04T03:57:45.971Z,9.43
2019-03-04T04:00:22.442Z,8.03
2019-03-04T04:02:51.817Z,6.50
2019-03-04T04:05:20.992Z,9.00
2019-03-04T04:07:50.190Z,7.27
2019-03-04T04:10:20.511Z,5.77
2019-03-04T04:12:49.706Z,5.53
2019-03-04T04:15:19.729Z,4.57
2019-03-04T04:17:48.942Z,6.23
2019-03-04T04:20:18.133Z,5.73
2019-03-04T04:22:47.334Z,4.03
2019-03-04T04:25:16.534Z,4.53
2019-03-04T04:27:45.770Z,4.60
2019-03-04T04:30:17.721Z,5.97
2019-03-04T04:32:47.104Z,4.20
2019-03-04T04:35:16.290Z,3.90
2019-03-04T04:37:45.521Z,5.47
2019-03-04T04:40:14.788Z,5.93
2019-03-04T04:42:43.980Z,6.60
2019-03-04T04:45:13.185Z,5.57
2019-03-04T04:47:43.544Z,6.27
2019-03-04T04:50:15.986Z,5.10
2019-03-04T04:52:45.202Z,4.63
2019-03-04T04:55:14.386Z,6.93
2019-03-04T04:57:43.603Z,5.67
2019-03-04T05:00:14.821Z,6.77
2019-03-04T05:02:44.040Z,6.03
2019-03-04T05:05:13.403Z,7.17
2019-03-04T05:07:42.678Z,5.07
2019-03-04T05:10:22.424Z,5.73
2019-03-04T05:12:51.631Z,4.93
2019-03-04T05:15:20.876Z,5.07
2019-03-04T05:17:50.109Z,5.17
2019-03-04T05:20:24.455Z,6.10
2019-03-04T05:22:53.655Z,5.67
2019-03-04T05:25:22.900Z,6.13
2019-03-04T05:27:52.216Z,6.20
2019-03-04T05:30:21.951Z,4.90
2019-03-04T05:32:51.142Z,5.47
2019-03-04T05:35:20.338Z,6.63
2019-03-04T05:37:49.552Z,6.37
2019-03-04T05:40:19.955Z,6.03
2019-03-04T05:42:49.228Z,4.27
2019-03-04T05:45:18.956Z,3.57
2019-03-04T05:47:48.243Z,5.03
2019-03-04T05:50:22.487Z,3.37
2019-03-04T05:52:51.687Z,4.10
2019-03-04T05:55:20.874Z,6.37
2019-03-04T05:57:50.077Z,4.33
2019-03-04T06:00:21.663Z,4.67
2019-03-04T06:02:52.405Z,5.10
2019-03-04T06:05:21.592Z,4.70
2019-03-04T06:07:52.431Z,3.73
2019-03-04T06:10:21.637Z,5.90
2019-03-04T06:12:50.810Z,5.50
2019-03-04T06:15:20.876Z,3.20
2019-03-04T06:17:50.075Z,3.37
2019-03-04T06:20:20.022Z,3.20
2019-03-04T06:22:49.187Z,3.63
2019-03-04T06:25:24.340Z,4.37
2019-03-04T06:27:53.543Z,2.03
2019-03-04T06:30:27.728Z,4.07
2019-03-04T06:32:56.911Z,3.43
2019-03-04T06:35:26.130Z,3.23
2019-03-04T06:37:55.462Z,4.37
2019-03-04T06:40:24.656Z,2.73
2019-03-04T06:42:53.847Z,3.73
2019-03-04T06:45:23.047Z,5.33
2019-03-04T06:47:52.223Z,3.17
2019-03-04T06:50:44.674Z,4.20
2019-03-04T06:53:32.165Z,2.37
2019-03-04T06:56:07.790Z,4.43
2019-03-04T06:58:43.151Z,2.60
2019-03-04T07:01:14.925Z,2.60
2019-03-04T07:03:44.124Z,6.67
2019-03-04T07:06:13.310Z,2.73
2019-03-04T07:08:45.792Z,6.30
2019-03-04T07:11:14.984Z,3.77
2019-03-04T07:13:44.200Z,2.57
2019-03-04T07:16:13.406Z,2.20
2019-03-04T07:18:42.619Z,3.03
2019-03-04T07:21:11.792Z,2.90
2019-03-04T07:23:43.827Z,4.87
2019-03-04T07:26:13.182Z,6.63
2019-03-04T07:28:42.386Z,3.03
2019-03-04T07:31:11.655Z,3.63
2019-03-04T07:33:40.856Z,4.17
2019-03-04T07:36:10.041Z,3.80
2019-03-04T07:38:44.260Z,2.20
2019-03-04T07:41:13.445Z,4.30
2019-03-04T07:43:42.671Z,5.33
2019-03-04T07:46:11.946Z,1.33
2019-03-04T07:48:41.146Z,3.97
2019-03-04T07:51:15.300Z,2.23
2019-03-04T07:53:46.746Z,3.47
2019-03-04T07:56:15.443Z,1.70
2019-03-04T07:58:44.636Z,4.30
2019-03-04T08:01:13.826Z,3.83
2019-03-04T08:03:43.094Z,2.60
2019-03-04T08:06:12.340Z,3.10
2019-03-04T08:09:03.441Z,3.53
2019-03-04T08:11:44.873Z,2.30
2019-03-04T08:14:14.484Z,1.80
2019-03-04T08:16:43.657Z,2.90
2019-03-04T08:19:12.852Z,2.80
2019-03-04T08:21:42.048Z,5.87
2019-03-04T08:24:11.261Z,5.80
2019-03-04T08:26:40.439Z,4.00
2019-03-04T08:29:09.657Z,4.67
2019-03-04T08:31:38.842Z,5.20
2019-03-04T08:34:09.374Z,2.13
2019-03-04T08:36:38.635Z,5.23
2019-03-04T08:39:08.507Z,6.77
2019-03-04T08:41:37.737Z,4.33
2019-03-04T08:44:07.020Z,5.40
2019-03-04T08:46:36.287Z,5.37
2019-03-04T08:49:05.511Z,3.60
2019-03-04T08:51:34.697Z,2.87
2019-03-04T08:54:03.934Z,5.83
2019-03-04T08:56:33.124Z,5.47
2019-03-04T08:59:02.331Z,7.73
2019-03-04T09:01:31.601Z,5.53
2019-03-04T09:04:00.826Z,6.33
2019-03-04T09:06:30.015Z,6.20
2019-03-04T09:08:59.347Z,4.17
2019-03-04T09:11:28.515Z,3.33
2019-03-04T09:13:57.728Z,12.43
2019-03-04T09:16:26.999Z,5.37
2019-03-04T09:18:56.199Z,4.53
2019-03-04T09:21:25.489Z,6.40
2019-03-04T09:23:54.703Z,7.77
2019-03-04T09:26:23.982Z,4.97
2019-03-04T09:28:53.198Z,6.47
2019-03-04T09:31:22.378Z,4.33
2019-03-04T09:33:51.686Z,10.13
2019-03-04T09:36:20.878Z,9.87
2019-03-04T09:38:50.087Z,5.47
2019-03-04T09:41:19.260Z,9.07
2019-03-04T09:43:48.526Z,6.07
2019-03-04T09:46:17.758Z,7.93
2019-03-04T09:48:46.958Z,7.20
2019-03-04T09:51:24.110Z,8.53
2019-03-04T09:53:47.164Z,6.00
2019-03-04T09:56:16.342Z,6.20
2019-03-04T09:58:45.551Z,5.13
2019-03-04T10:01:18.000Z,7.73
2019-03-04T10:04:10.101Z,5.10
2019-03-04T10:06:51.081Z,6.37
2019-03-04T10:09:29.718Z,6.97
2019-03-04T10:12:23.381Z,5.87
2019-03-04T10:15:08.355Z,8.87
2019-03-04T10:17:38.612Z,5.60
2019-03-04T10:20:16.603Z,5.30
2019-03-04T10:22:51.624Z,8.60
2019-03-04T10:25:54.696Z,8.50
2019-03-04T10:28:46.619Z,7.30
2019-03-04T10:31:24.614Z,10.00
2019-03-04T10:34:13.415Z,7.13
2019-03-04T10:37:02.245Z,9.73
2019-03-04T10:39:54.577Z,4.87
2019-03-04T10:42:45.159Z,5.10
2019-03-04T10:45:42.026Z,5.83
2019-03-04T10:48:11.217Z,5.73
2019-03-04T10:50:40.431Z,7.93
2019-03-04T10:53:09.715Z,7.43
2019-03-04T10:55:42.157Z,10.67
2019-03-04T10:58:09.815Z,6.30
2019-03-04T11:00:39.122Z,10.50
2019-03-04T11:03:08.312Z,10.23
2019-03-04T11:05:37.516Z,7.90
2019-03-04T11:08:06.703Z,9.20
2019-03-04T11:10:35.930Z,6.93
2019-03-04T11:13:05.124Z,11.23
2019-03-04T11:15:34.344Z,9.93
2019-03-04T11:18:03.538Z,6.33
2019-03-04T11:20:32.752Z,7.40
2019-03-04T11:23:01.944Z,5.87
2019-03-04T11:25:31.808Z,5.97
2019-03-04T11:28:01.010Z,5.13
2019-03-04T11:30:31.986Z,7.53
2019-03-04T11:33:01.162Z,6.97
2019-03-04T11:35:30.382Z,7.73
2019-03-04T11:37:59.592Z,6.83
2019-03-04T11:40:32.378Z,6.93
2019-03-04T11:43:01.560Z,8.50
2019-03-04T11:45:30.782Z,10.13
2019-03-04T11:47:59.976Z,7.93
2019-03-04T11:50:29.200Z,3.70
2019-03-04T11:52:58.383Z,8.17
2019-03-04T11:55:32.428Z,11.87
2019-03-04T11:58:01.625Z,5.60
2019-03-04T12:00:32.491Z,6.63
2019-03-04T12:03:01.679Z,13.23
2019-03-04T12:05:30.900Z,8.77
2019-03-04T12:08:00.167Z,7.20
2019-03-04T12:10:29.498Z,9.10
2019-03-04T12:12:58.691Z,9.67
2019-03-04T12:15:28.006Z,9.97
2019-03-04T12:17:57.182Z,6.00
2019-03-04T12:20:26.387Z,7.53
2019-03-04T12:22:55.595Z,8.73
2019-03-04T12:25:24.877Z,12.23
2019-03-04T12:27:54.167Z,9.57
2019-03-04T12:30:24.819Z,9.60
2019-03-04T12:32:54.381Z,6.70
2019-03-04T12:35:23.589Z,7.07
2019-03-04T12:37:52.770Z,8.67
2019-03-04T12:40:24.821Z,8.33
2019-03-04T12:42:54.057Z,6.40
2019-03-04T12:45:33.663Z,5.10
2019-03-04T12:47:55.035Z,6.50
2019-03-04T12:50:32.020Z,8.87
2019-03-04T12:53:01.215Z,9.23
2019-03-04T12:55:30.400Z,9.20
2019-03-04T12:57:59.681Z,8.43
2019-03-04T13:00:30.859Z,10.40
2019-03-04T13:03:00.065Z,9.30
2019-03-04T13:05:29.258Z,7.07
2019-03-04T13:07:58.454Z,4.57
2019-03-04T13:10:27.637Z,4.40
2019-03-04T13:12:56.836Z,4.33
2019-03-04T13:15:34.422Z,6.23
2019-03-04T13:18:06.662Z,6.33
2019-03-04T13:20:35.792Z,7.93
2019-03-04T13:23:05.248Z,7.13
2019-03-04T13:25:34.435Z,5.90
2019-03-04T13:28:08.192Z,6.53
2019-03-04T13:30:39.114Z,3.37
2019-03-04T13:33:08.312Z,5.67
2019-03-04T13:35:41.810Z,3.77
2019-03-04T13:38:11.026Z,4.13
2019-03-04T13:40:40.204Z,3.67
2019-03-04T13:43:09.423Z,5.13
2019-03-04T13:45:38.701Z,1.97
2019-03-04T13:48:07.898Z,5.47
2019-03-04T13:50:37.644Z,1.63
2019-03-04T13:53:06.850Z,2.43
2019-03-04T13:55:36.042Z,4.23
2019-03-04T13:58:05.406Z,2.27
2019-03-04T14:00:45.118Z,3.33
2019-03-04T14:03:14.777Z,2.93
2019-03-04T14:05:44.027Z,3.77
2019-03-04T14:08:13.227Z,4.17
2019-03-04T14:10:45.030Z,2.70
2019-03-04T14:13:14.222Z,3.10
2019-03-04T14:15:45.969Z,3.37
2019-03-04T14:18:15.203Z,3.53
2019-03-04T14:20:44.400Z,2.10
2019-03-04T14:23:13.588Z,0.40
2019-03-04T14:25:42.861Z,0.60
2019-03-04T14:28:12.066Z,0.70
2019-03-04T14:30:41.263Z,1.03
2019-03-04T14:33:10.480Z,1.27
2019-03-04T14:35:39.655Z,0.43
2019-03-04T14:38:08.859Z,1.17
2019-03-04T14:40:38.039Z,0.60
2019-03-04T14:43:07.241Z,1.27
2019-03-04T14:45:36.427Z,0.73
2019-03-04T14:48:05.639Z,1.60
2019-03-04T14:50:34.818Z,1.23
2019-03-04T14:53:04.023Z,1.70
2019-03-04T14:55:40.607Z,1.43
2019-03-04T14:58:09.814Z,0.70
2019-03-04T15:00:41.511Z,0.90
2019-03-04T15:03:19.826Z,0.90
2019-03-04T15:05:41.611Z,1.37
2019-03-04T15:08:11.725Z,1.27
2019-03-04T15:10:40.896Z,2.00
2019-03-04T15:13:10.254Z,2.17
2019-03-04T15:15:39.371Z,1.87
2019-03-04T15:18:08.570Z,0.67
2019-03-04T15:20:37.745Z,0.50
2019-03-04T15:23:06.950Z,1.13
2019-03-04T15:25:41.291Z,0.67
2019-03-04T15:28:13.755Z,1.27
2019-03-04T15:30:44.741Z,1.10
2019-03-04T15:33:18.142Z,1.50
2019-03-04T15:35:44.814Z,1.77
2019-03-04T15:38:14.000Z,1.60
2019-03-04T15:40:43.256Z,2.53
2019-03-04T15:43:12.463Z,2.90
2019-03-04T15:45:43.279Z,2.20
2019-03-04T15:48:13.013Z,2.80
2019-03-04T15:50:42.211Z,3.17
2019-03-04T15:53:11.392Z,1.50
2019-03-04T15:55:40.602Z,2.47
2019-03-04T15:58:09.801Z,1.87
2019-03-04T16:00:38.976Z,2.93
2019-03-04T16:03:08.249Z,1.80
2019-03-04T16:05:37.423Z,3.20
2019-03-04T16:08:07.921Z,1.20
2019-03-04T16:10:38.297Z,2.10
2019-03-04T16:13:09.131Z,4.40
2019-03-04T16:15:41.152Z,2.00
2019-03-04T16:18:10.357Z,0.97
2019-03-04T16:20:39.549Z,2.67
2019-03-04T16:23:08.763Z,2.37
2019-03-04T16:25:38.022Z,2.90
2019-03-04T16:28:25.371Z,2.80
2019-03-04T16:30:54.545Z,3.00
2019-03-04T16:33:24.584Z,1.77
2019-03-04T16:35:53.861Z,1.97
2019-03-04T16:38:23.130Z,1.97
2019-03-04T16:40:52.362Z,2.30
2019-03-04T16:43:21.577Z,3.73
2019-03-04T16:45:50.858Z,3.00
2019-03-04T16:48:20.075Z,1.97
2019-03-04T16:50:49.355Z,3.07
2019-03-04T16:53:22.059Z,2.77
2019-03-04T16:55:51.262Z,4.77
2019-03-04T16:58:20.470Z,3.07
2019-03-04T17:00:49.731Z,1.87
2019-03-04T17:03:18.946Z,3.13
2019-03-04T17:05:48.089Z,3.07
2019-03-04T17:08:17.318Z,2.73
2019-03-04T17:10:46.514Z,5.70
2019-03-04T17:13:15.745Z,4.40
2019-03-04T17:15:45.041Z,3.03
2019-03-04T17:18:14.210Z,3.90
2019-03-04T17:20:43.432Z,3.97
2019-03-04T17:23:12.610Z,2.33
2019-03-04T17:25:41.812Z,2.80
2019-03-04T17:28:10.994Z,3.30
2019-03-04T17:30:40.202Z,3.13
2019-03-04T17:33:09.388Z,1.73
2019-03-04T17:35:38.583Z,2.93
2019-03-04T17:38:07.826Z,4.90
2019-03-04T17:40:37.022Z,3.27
2019-03-04T17:43:06.218Z,4.17
2019-03-04T17:45:35.417Z,4.50
2019-03-04T17:48:04.597Z,3.37
2019-03-04T17:50:35.802Z,4.33
2019-03-04T17:53:09.803Z,2.70
2019-03-04T17:55:38.999Z,2.70
2019-03-04T17:58:08.184Z,4.07
2019-03-04T18:00:39.268Z,2.47
2019-03-04T18:03:08.450Z,4.30
2019-03-04T18:05:37.644Z,4.27
2019-03-04T18:08:06.819Z,3.57
2019-03-04T18:10:36.096Z,3.40
2019-03-04T18:13:07.893Z,3.60
2019-03-04T18:15:41.387Z,3.27
2019-03-04T18:18:10.575Z,2.53
2019-03-04T18:20:39.767Z,2.00
2019-03-04T18:23:08.954Z,3.80
2019-03-04T18:25:41.204Z,3.50
2019-03-04T18:28:28.565Z,1.77
2019-03-04T18:31:10.025Z,2.70
2019-03-04T18:33:45.364Z,3.67
2019-03-04T18:36:29.930Z,3.93
2019-03-04T18:39:20.885Z,3.17
2019-03-04T18:42:13.070Z,3.60
2019-03-04T18:44:51.050Z,2.57
2019-03-04T18:47:38.633Z,5.40
2019-03-04T18:50:07.998Z,1.77
2019-03-04T18:52:37.172Z,2.87
2019-03-04T18:55:08.427Z,2.33
2019-03-04T18:57:37.608Z,2.40
2019-03-04T19:00:10.074Z,2.30
2019-03-04T19:02:39.265Z,2.60
2019-03-04T19:05:10.135Z,4.00
2019-03-04T19:07:39.506Z,3.30
2019-03-04T19:10:11.390Z,3.93
2019-03-04T19:12:40.602Z,3.80
2019-03-04T19:15:11.043Z,3.30
2019-03-04T19:17:40.222Z,4.37
2019-03-04T19:20:17.221Z,3.40
2019-03-04T19:22:46.414Z,4.07
2019-03-04T19:25:15.619Z,4.30
2019-03-04T19:27:44.965Z,5.23
2019-03-04T19:30:17.266Z,4.07
2019-03-04T19:32:46.460Z,2.70
2019-03-04T19:35:15.903Z,3.20
2019-03-04T19:37:45.105Z,2.47
2019-03-04T19:40:15.972Z,2.90
2019-03-04T19:42:45.113Z,3.50
2019-03-04T19:45:18.786Z,3.27
2019-03-04T19:47:47.964Z,2.13
2019-03-04T19:50:17.172Z,3.23
2019-03-04T19:52:46.347Z,2.57
2019-03-04T19:55:19.160Z,2.07
2019-03-04T19:57:48.303Z,2.50
2019-03-04T20:00:24.724Z,1.90
2019-03-04T20:02:53.437Z,3.63
2019-03-04T20:05:23.760Z,4.33
2019-03-04T20:07:53.025Z,3.23
2019-03-04T20:10:22.236Z,2.80
2019-03-04T20:12:51.484Z,2.17
2019-03-04T20:15:29.170Z,3.03
2019-03-04T20:17:58.359Z,2.00
2019-03-04T20:20:27.566Z,3.23
2019-03-04T20:22:56.741Z,3.63
2019-03-04T20:25:28.309Z,2.30
2019-03-04T20:27:57.529Z,2.70
2019-03-04T20:30:26.756Z,2.47
2019-03-04T20:32:55.974Z,3.90
2019-03-04T20:35:25.216Z,2.10
2019-03-04T20:38:06.278Z,3.20
2019-03-04T20:40:35.454Z,2.40
2019-03-04T20:43:04.646Z,2.37
2019-03-04T20:45:33.919Z,2.93
2019-03-04T20:48:03.299Z,3.10
2019-03-04T20:50:32.475Z,2.83
2019-03-04T20:53:01.690Z,3.40
2019-03-04T20:55:30.872Z,2.00
2019-03-04T20:58:00.110Z,2.13
2019-03-04T21:00:34.645Z,3.40
2019-03-04T21:03:05.958Z,3.00
2019-03-04T21:05:37.334Z,3.90
2019-03-04T21:08:07.182Z,2.77
2019-03-04T21:10:36.441Z,2.73
2019-03-04T21:13:07.276Z,3.60
2019-03-04T21:15:36.477Z,2.60
2019-03-04T21:18:06.211Z,3.47
2019-03-04T21:20:35.461Z,3.60
2019-03-04T21:23:04.700Z,2.23
2019-03-04T21:25:36.394Z,4.63
2019-03-04T21:28:23.758Z,5.60
2019-03-04T21:30:59.089Z,2.40
2019-03-04T21:33:59.644Z,3.30
2019-03-04T21:36:54.746Z,3.77
2019-03-04T21:39:35.010Z,5.23
2019-03-04T21:42:10.258Z,3.47
2019-03-04T21:44:59.957Z,3.27
2019-03-04T21:47:37.974Z,2.33
2019-03-04T21:50:13.494Z,3.17
2019-03-04T21:52:46.928Z,5.10
2019-03-04T21:55:31.540Z,1.80
2019-03-04T21:58:00.817Z,2.40
2019-03-04T22:00:32.987Z,4.60
2019-03-04T22:03:08.060Z,3.70
2019-03-04T22:05:37.860Z,5.20
2019-03-04T22:08:07.057Z,5.23
2019-03-04T22:10:36.236Z,4.60
2019-03-04T22:13:05.456Z,2.03
2019-03-04T22:15:34.735Z,2.10
2019-03-04T22:18:04.396Z,4.30
2019-03-04T22:20:33.640Z,2.23
2019-03-04T22:23:02.862Z,3.37
2019-03-04T22:25:32.036Z,4.67
2019-03-04T22:28:01.228Z,3.50
2019-03-04T22:30:30.411Z,3.50
2019-03-04T22:32:59.600Z,3.23
2019-03-04T22:35:28.805Z,3.07
2019-03-04T22:37:58.001Z,3.17
2019-03-04T22:40:28.321Z,3.73
2019-03-04T22:42:57.542Z,2.40
2019-03-04T22:45:26.736Z,8.57
2019-03-04T22:47:55.944Z,4.63
2019-03-04T22:50:25.139Z,3.10
2019-03-04T22:52:54.339Z,5.53
2019-03-04T22:55:32.066Z,3.93
2019-03-04T22:58:01.289Z,2.70
2019-03-04T23:00:50.197Z,4.43
2019-03-04T23:03:19.597Z,4.70
2019-03-04T23:05:51.613Z,5.77
2019-03-04T23:08:20.813Z,3.87
2019-03-04T23:10:51.035Z,3.47
2019-03-04T23:13:23.485Z,7.73
2019-03-04T23:15:54.102Z,4.23
2019-03-04T23:18:23.303Z,3.40
2019-03-04T23:20:52.489Z,2.70
2019-03-04T23:23:21.675Z,6.17
2019-03-04T23:25:50.867Z,3.53
2019-03-04T23:28:20.147Z,3.10
2019-03-04T23:30:49.362Z,6.10
2019-03-04T23:33:18.647Z,6.23
2019-03-04T23:35:47.862Z,6.17
2019-03-04T23:38:17.042Z,6.07
2019-03-04T23:40:46.245Z,7.10
2019-03-04T23:43:15.422Z,3.57
2019-03-04T23:45:44.637Z,5.20
2019-03-04T23:48:13.816Z,4.63
2019-03-04T23:50:43.016Z,6.47
2019-03-04T23:53:12.209Z,5.70
2019-03-04T23:55:41.406Z,6.00
2019-03-04T23:58:10.592Z,4.93
